Morro do Chapeu, Brazil
Current Conditions -  °F | °C
As of 1:00 PM on Friday 31 Oct 2014 (Local Time) from SBPL Reporting Station
Broken Clouds Broken Clouds  
Wind Chill: 95°   Ceiling: 4000
Heat Index: 95°   Visibility: 6mi
Dew Point: 59°   Wind: 9mph
Humidity: 30%   Direction: 110°ESE
Pressure: 29.91"   Gusts: NA
Location:  11.55°S, 41.16°W
Report Text: SBPL 311600Z 11008KT 9999 BKN040 35/15 Q1013
Loading
Personal Weather Stations






























Interactive Weather Map
Tropical Storm Tracking
New forecast layout! Learn more

10-Day Weather Forecast

Advertisements
Track Severe Weather on mobile